Time;durP1;ratioP1;P1;durP2;ratioP2;P2;SDS_P1;SDS_P2;PMS_P1;PMS_P2;Temp;Humidity;BMP_temperature;BMP_pressure;BME280_temperature;BME280_humidity;BME280_pressure;Samples;Min_cycle;Max_cycle;Signal;HPM_P1;HPM_P2
2021/06/05 00:01:51;;;;;;;3.20;2.53;;;;;;;;;;5133568;27;20229;-70
2021/06/05 00:04:22;;;;;;;3.40;2.58;;;;;;;;;;5133265;27;20293;-73
2021/06/05 00:06:49;;;;;;;3.95;2.83;;;;;;;;;;5133613;27;20207;-72
2021/06/05 00:09:19;;;;;;;2.55;2.35;;;;;;;;;;5132236;27;20241;-72
2021/06/05 00:11:45;;;;;;;4.93;2.70;;;;;;;;;;5133585;27;20199;-72
2021/06/05 00:14:12;;;;;;;5.03;2.85;;;;;;;;;;5132186;27;20615;-72
2021/06/05 00:16:41;;;;;;;5.15;2.50;;;;;;;;;;5132480;27;20207;-72
2021/06/05 00:19:09;;;;;;;2.50;2.03;;;;;;;;;;5133433;27;20412;-72
2021/06/05 00:21:35;;;;;;;3.60;2.85;;;;;;;;;;5133207;27;20199;-72
2021/06/05 00:24:02;;;;;;;3.22;2.67;;;;;;;;;;5133308;27;20294;-72
2021/06/05 00:26:28;;;;;;;4.78;3.05;;;;;;;;;;5132646;27;20207;-72
2021/06/05 00:28:55;;;;;;;3.47;2.78;;;;;;;;;;5132961;27;20677;-72
2021/06/05 00:31:21;;;;;;;3.00;2.40;;;;;;;;;;5133093;27;20198;-72
2021/06/05 00:33:48;;;;;;;6.70;2.80;;;;;;;;;;5132625;27;20882;-72
2021/06/05 00:36:14;;;;;;;2.58;2.22;;;;;;;;;;5132498;27;20295;-72
2021/06/05 00:38:41;;;;;;;4.25;2.97;;;;;;;;;;5133067;27;20205;-72
2021/06/05 00:41:08;;;;;;;3.15;2.50;;;;;;;;;;5128050;27;20196;-73
2021/06/05 00:43:37;;;;;;;4.85;2.80;;;;;;;;;;5112415;28;20199;-73
2021/06/05 00:46:03;;;;;;;3.22;2.60;;;;;;;;;;5090737;28;20275;-72
2021/06/05 00:48:30;;;;;;;2.60;2.10;;;;;;;;;;5091901;28;20196;-72
2021/06/05 00:50:57;;;;;;;6.95;2.95;;;;;;;;;;5117854;27;20258;-73
2021/06/05 00:53:24;;;;;;;4.20;3.17;;;;;;;;;;5132804;27;20307;-72
2021/06/05 00:55:53;;;;;;;5.30;3.28;;;;;;;;;;5132108;27;20282;-72
2021/06/05 00:58:20;;;;;;;4.17;2.40;;;;;;;;;;5132919;27;20253;-72
2021/06/05 01:34:49;;;;;;;3.33;2.63;;;;;;;;;;5162319;27;20529;-72
2021/06/05 01:37:16;;;;;;;2.93;2.13;;;;;;;;;;5129635;27;20291;-71
2021/06/05 01:39:44;;;;;;;3.93;2.80;;;;;;;;;;5128174;28;20222;-72
2021/06/05 01:42:24;;;;;;;3.30;2.67;;;;;;;;;;5129336;27;20699;-72
2021/06/05 01:44:52;;;;;;;3.37;2.53;;;;;;;;;;5119566;27;20214;-73
2021/06/05 01:47:18;;;;;;;3.40;2.43;;;;;;;;;;5107821;28;20583;-74
2021/06/05 01:49:45;;;;;;;3.30;2.40;;;;;;;;;;5114488;27;20253;-72
2021/06/05 01:52:20;;;;;;;4.20;2.83;;;;;;;;;;5150095;27;20882;-72
2021/06/05 01:55:05;;;;;;;3.10;2.23;;;;;;;;;;5149586;27;20198;-73
2021/06/05 01:57:33;;;;;;;7.17;2.50;;;;;;;;;;5149358;27;20195;-71
2021/06/05 02:00:00;;;;;;;3.20;2.57;;;;;;;;;;5149887;27;20412;-73
2021/06/05 02:02:26;;;;;;;4.83;2.90;;;;;;;;;;5149837;27;20194;-72
2021/06/05 02:04:53;;;;;;;2.70;2.27;;;;;;;;;;5149000;27;20206;-73
2021/06/05 02:07:19;;;;;;;3.63;2.40;;;;;;;;;;5149986;27;20196;-72
2021/06/05 02:09:46;;;;;;;3.53;2.35;;;;;;;;;;5149984;27;20301;-72
2021/06/05 02:12:15;;;;;;;4.30;2.97;;;;;;;;;;5147333;27;20198;-72
2021/06/05 02:14:54;;;;;;;3.00;2.63;;;;;;;;;;5116454;27;20291;-72
2021/06/05 02:17:22;;;;;;;4.63;3.15;;;;;;;;;;5123486;27;20217;-73
2021/06/05 02:19:52;;;;;;;3.50;2.87;;;;;;;;;;5123504;27;20221;-72
2021/06/05 02:22:21;;;;;;;3.72;2.75;;;;;;;;;;5123178;28;20574;-72
2021/06/05 02:24:51;;;;;;;4.25;3.03;;;;;;;;;;5122380;27;20206;-72
2021/06/05 02:27:19;;;;;;;3.17;2.80;;;;;;;;;;5123318;27;20217;-72
2021/06/05 02:29:46;;;;;;;3.40;3.07;;;;;;;;;;5127484;27;20913;-72
2021/06/05 02:32:14;;;;;;;4.88;2.63;;;;;;;;;;5128836;27;20752;-72
2021/06/05 02:34:41;;;;;;;4.20;3.08;;;;;;;;;;5127551;28;20600;-72
2021/06/05 02:37:09;;;;;;;5.07;3.45;;;;;;;;;;5128654;27;20202;-72
2021/06/05 02:39:35;;;;;;;3.30;2.83;;;;;;;;;;5128491;27;20591;-72
2021/06/05 02:42:03;;;;;;;3.22;2.60;;;;;;;;;;5128369;27;20719;-72
2021/06/05 02:44:30;;;;;;;4.05;3.08;;;;;;;;;;5117069;27;20250;-72
2021/06/05 02:46:57;;;;;;;4.50;2.80;;;;;;;;;;5094888;28;20232;-73
2021/06/05 02:49:26;;;;;;;3.83;3.13;;;;;;;;;;5094471;28;20224;-72
2021/06/05 02:51:58;;;;;;;6.88;2.70;;;;;;;;;;5094413;28;20206;-71
2021/06/05 02:54:25;;;;;;;4.53;3.00;;;;;;;;;;5093570;28;20230;-72
2021/06/05 02:56:52;;;;;;;3.63;2.77;;;;;;;;;;5094020;28;20323;-72
2021/06/05 02:59:19;;;;;;;2.83;2.58;;;;;;;;;;5094296;28;20220;-72
2021/06/05 03:01:46;;;;;;;4.60;3.53;;;;;;;;;;5094151;28;20279;-72
2021/06/05 03:04:13;;;;;;;3.97;2.42;;;;;;;;;;5094042;28;20729;-73
2021/06/05 03:06:39;;;;;;;3.63;2.90;;;;;;;;;;5093412;28;20205;-73
2021/06/05 03:09:06;;;;;;;3.80;3.20;;;;;;;;;;5093832;28;20709;-74
2021/06/05 03:11:33;;;;;;;3.28;2.60;;;;;;;;;;5093110;28;20243;-73
2021/06/05 03:14:00;;;;;;;3.03;2.70;;;;;;;;;;5093937;28;20220;-73
2021/06/05 03:16:26;;;;;;;2.90;2.30;;;;;;;;;;5092469;28;20228;-74
2021/06/05 03:18:55;;;;;;;3.22;2.70;;;;;;;;;;5093986;28;20201;-73
2021/06/05 03:21:22;;;;;;;3.00;2.42;;;;;;;;;;5092821;28;20201;-73
2021/06/05 03:23:49;;;;;;;3.35;2.50;;;;;;;;;;5093627;28;20215;-72
2021/06/05 03:26:16;;;;;;;3.38;2.22;;;;;;;;;;5093288;28;20705;-72
2021/06/05 03:28:43;;;;;;;2.70;2.10;;;;;;;;;;5093786;28;20212;-72
2021/06/05 03:31:10;;;;;;;2.22;2.03;;;;;;;;;;5093670;28;20204;-71
2021/06/05 03:33:36;;;;;;;4.18;2.63;;;;;;;;;;5093378;28;20264;-70
2021/06/05 03:36:03;;;;;;;3.53;2.50;;;;;;;;;;5092820;28;20201;-70
2021/06/05 03:38:29;;;;;;;3.20;2.47;;;;;;;;;;5093290;28;20291;-70
2021/06/05 03:40:56;;;;;;;3.38;2.67;;;;;;;;;;5096382;28;20251;-70
2021/06/05 03:43:23;;;;;;;3.17;2.40;;;;;;;;;;5113818;28;20204;-70
2021/06/05 03:45:49;;;;;;;5.43;2.58;;;;;;;;;;5095383;28;20327;-70
2021/06/05 03:48:16;;;;;;;2.67;2.05;;;;;;;;;;5093306;28;20244;-70
2021/06/05 03:50:44;;;;;;;2.73;2.47;;;;;;;;;;5114836;27;20247;-70
2021/06/05 03:53:12;;;;;;;3.13;2.10;;;;;;;;;;5134016;27;20290;-70
2021/06/05 03:55:38;;;;;;;2.45;2.22;;;;;;;;;;5133757;27;20205;-71
2021/06/05 03:58:05;;;;;;;4.75;2.78;;;;;;;;;;5133607;27;20210;-72
2021/06/05 04:00:34;;;;;;;4.60;3.03;;;;;;;;;;5133828;27;20790;-72
2021/06/05 04:03:00;;;;;;;4.32;2.67;;;;;;;;;;5132773;27;20664;-72
2021/06/05 04:05:32;;;;;;;4.63;2.80;;;;;;;;;;5131826;27;20622;-73
2021/06/05 04:07:58;;;;;;;4.88;2.83;;;;;;;;;;5134135;27;20279;-72
2021/06/05 04:10:25;;;;;;;4.47;2.97;;;;;;;;;;5132910;27;20222;-72
2021/06/05 04:12:53;;;;;;;4.18;2.65;;;;;;;;;;5133958;27;20298;-72
2021/06/05 04:15:23;;;;;;;3.60;2.63;;;;;;;;;;5133209;27;20331;-72
2021/06/05 04:18:04;;;;;;;2.72;2.20;;;;;;;;;;5133630;27;20203;-72
2021/06/05 04:20:34;;;;;;;3.35;2.63;;;;;;;;;;5133729;27;20234;-72
2021/06/05 04:23:00;;;;;;;3.30;2.28;;;;;;;;;;5133837;27;20290;-72
2021/06/05 04:25:27;;;;;;;3.45;2.85;;;;;;;;;;5132773;27;20222;-72
2021/06/05 04:27:54;;;;;;;4.07;2.95;;;;;;;;;;5133567;27;20679;-72
2021/06/05 04:30:22;;;;;;;2.28;2.05;;;;;;;;;;5133323;27;20220;-73
2021/06/05 04:32:48;;;;;;;3.00;2.10;;;;;;;;;;5133404;27;20222;-73
2021/06/05 04:35:15;;;;;;;5.40;2.70;;;;;;;;;;5132714;27;20581;-73
2021/06/05 04:37:42;;;;;;;3.75;2.63;;;;;;;;;;5133440;27;20203;-73
2021/06/05 04:40:09;;;;;;;3.28;2.72;;;;;;;;;;5133401;27;20219;-73
2021/06/05 04:42:35;;;;;;;3.85;2.72;;;;;;;;;;5115996;27;20203;-73
2021/06/05 04:45:03;;;;;;;2.63;2.30;;;;;;;;;;5100842;28;20201;-73
2021/06/05 04:47:29;;;;;;;3.72;2.78;;;;;;;;;;5092576;28;20207;-73
2021/06/05 04:49:56;;;;;;;3.90;2.75;;;;;;;;;;5099513;27;20242;-73
2021/06/05 04:52:24;;;;;;;3.67;2.55;;;;;;;;;;5132983;27;20202;-73
2021/06/05 04:54:50;;;;;;;8.82;2.67;;;;;;;;;;5132165;27;20270;-73
2021/06/05 04:57:17;;;;;;;2.88;2.58;;;;;;;;;;5133008;27;20195;-73
2021/06/05 04:59:44;;;;;;;4.88;2.70;;;;;;;;;;5132370;27;20719;-73
2021/06/05 05:02:10;;;;;;;3.42;2.60;;;;;;;;;;5132784;27;20203;-73
2021/06/05 05:04:36;;;;;;;2.63;2.13;;;;;;;;;;5132148;27;21186;-73
2021/06/05 05:07:03;;;;;;;3.08;2.45;;;;;;;;;;5132712;27;20199;-73
2021/06/05 05:09:29;;;;;;;2.20;1.90;;;;;;;;;;5132349;27;20729;-73
2021/06/05 05:11:56;;;;;;;2.67;2.13;;;;;;;;;;5132720;27;20207;-73
2021/06/05 05:14:22;;;;;;;3.25;2.40;;;;;;;;;;5131954;27;20226;-73
2021/06/05 05:16:48;;;;;;;3.00;2.50;;;;;;;;;;5132707;27;20203;-72
2021/06/05 05:19:15;;;;;;;3.45;2.83;;;;;;;;;;5132699;27;20304;-73
2021/06/05 05:21:42;;;;;;;3.92;2.75;;;;;;;;;;5132551;27;20213;-73
2021/06/05 05:24:09;;;;;;;3.63;2.70;;;;;;;;;;5131312;27;20235;-73
2021/06/05 05:26:35;;;;;;;4.10;2.83;;;;;;;;;;5131954;27;20217;-73
2021/06/05 05:29:01;;;;;;;4.35;3.50;;;;;;;;;;5125437;27;20234;-73
2021/06/05 05:31:28;;;;;;;3.13;2.45;;;;;;;;;;5099670;28;20201;-73
2021/06/05 05:33:56;;;;;;;3.55;2.95;;;;;;;;;;5105655;28;20223;-73
2021/06/05 05:36:24;;;;;;;3.42;2.97;;;;;;;;;;5106327;28;20260;-73
2021/06/05 05:38:51;;;;;;;5.10;3.67;;;;;;;;;;5104998;28;20713;-73
2021/06/05 05:41:18;;;;;;;4.85;3.42;;;;;;;;;;5105579;28;20200;-73
2021/06/05 05:43:45;;;;;;;5.40;3.45;;;;;;;;;;5109837;28;20243;-72
2021/06/05 05:46:11;;;;;;;5.95;3.85;;;;;;;;;;5090703;28;20219;-73
2021/06/05 05:48:38;;;;;;;5.05;3.60;;;;;;;;;;5090465;28;20265;-73
2021/06/05 05:51:05;;;;;;;3.97;3.42;;;;;;;;;;5119309;27;20308;-73
2021/06/05 05:53:32;;;;;;;5.28;3.67;;;;;;;;;;5132371;27;20213;-73
2021/06/05 05:55:58;;;;;;;6.07;3.35;;;;;;;;;;5131834;27;20199;-73
2021/06/05 05:58:25;;;;;;;4.32;3.35;;;;;;;;;;5132917;27;20195;-73
2021/06/05 06:00:52;;;;;;;3.47;2.97;;;;;;;;;;5132574;27;20215;-73
2021/06/05 06:03:19;;;;;;;3.63;2.80;;;;;;;;;;5132788;27;20282;-72
2021/06/05 06:05:46;;;;;;;3.63;3.20;;;;;;;;;;5131971;27;20199;-73
2021/06/05 06:08:14;;;;;;;5.53;2.95;;;;;;;;;;5132382;27;20286;-73
2021/06/05 06:10:41;;;;;;;4.55;3.53;;;;;;;;;;5131873;27;20223;-72
2021/06/05 06:13:07;;;;;;;4.15;3.00;;;;;;;;;;5132380;27;20783;-72
2021/06/05 06:15:34;;;;;;;3.53;3.15;;;;;;;;;;5131271;27;20230;-72
2021/06/05 06:18:01;;;;;;;5.07;3.10;;;;;;;;;;5132060;27;20218;-72
2021/06/05 06:20:29;;;;;;;5.15;3.17;;;;;;;;;;5133771;27;20215;-73
2021/06/05 06:22:56;;;;;;;9.57;3.70;;;;;;;;;;5135724;27;20230;-73
2021/06/05 06:25:26;;;;;;;4.18;3.53;;;;;;;;;;5133857;27;20199;-72
2021/06/05 06:27:52;;;;;;;4.82;3.78;;;;;;;;;;5134802;27;20253;-72
2021/06/05 06:30:20;;;;;;;5.43;3.35;;;;;;;;;;5135730;27;20314;-72
2021/06/05 06:32:51;;;;;;;6.22;3.85;;;;;;;;;;5135684;27;20301;-73
2021/06/05 06:35:22;;;;;;;5.53;3.70;;;;;;;;;;5134964;27;20218;-73
2021/06/05 06:37:49;;;;;;;4.50;3.45;;;;;;;;;;5135839;27;20191;-73
2021/06/05 06:40:16;;;;;;;4.13;3.40;;;;;;;;;;5135352;27;20653;-74
2021/06/05 06:42:42;;;;;;;4.72;3.92;;;;;;;;;;5117694;27;20204;-73
2021/06/05 06:45:10;;;;;;;5.80;4.05;;;;;;;;;;5102464;28;20228;-73
2021/06/05 06:47:40;;;;;;;5.25;3.90;;;;;;;;;;5094878;28;20262;-73
2021/06/05 06:50:07;;;;;;;6.40;3.55;;;;;;;;;;5104670;27;20310;-73
2021/06/05 06:52:34;;;;;;;6.60;4.40;;;;;;;;;;5104760;28;20588;-73
2021/06/05 06:55:00;;;;;;;4.15;3.30;;;;;;;;;;5103773;28;20227;-74
2021/06/05 06:57:27;;;;;;;4.75;3.63;;;;;;;;;;5102911;27;20189;-73
2021/06/05 06:59:53;;;;;;;6.95;3.70;;;;;;;;;;5104373;28;20230;-73
2021/06/05 07:02:20;;;;;;;5.53;4.07;;;;;;;;;;5109141;28;20202;-72
2021/06/05 07:04:46;;;;;;;7.45;4.40;;;;;;;;;;5113746;28;20667;-73
2021/06/05 07:07:13;;;;;;;6.70;4.18;;;;;;;;;;5113707;28;20212;-72
2021/06/05 07:09:39;;;;;;;5.30;3.83;;;;;;;;;;5114635;28;20277;-72
2021/06/05 07:12:06;;;;;;;3.47;3.15;;;;;;;;;;5110116;28;20210;-71
2021/06/05 07:14:33;;;;;;;5.40;4.10;;;;;;;;;;5110379;28;20230;-72
2021/06/05 07:17:00;;;;;;;6.43;3.58;;;;;;;;;;5112524;28;20699;-71
2021/06/05 07:19:27;;;;;;;5.70;3.80;;;;;;;;;;5111484;28;20334;-72
2021/06/05 07:21:53;;;;;;;4.68;3.63;;;;;;;;;;5106549;28;20211;-71
2021/06/05 07:24:19;;;;;;;7.32;4.13;;;;;;;;;;5113153;28;20192;-72
2021/06/05 07:26:46;;;;;;;4.82;3.75;;;;;;;;;;5113433;28;20203;-70
2021/06/05 07:29:12;;;;;;;5.88;4.15;;;;;;;;;;5113643;28;20313;-72
2021/06/05 07:31:45;;;;;;;4.60;3.47;;;;;;;;;;5113694;28;20195;-71
2021/06/05 07:34:12;;;;;;;5.30;3.65;;;;;;;;;;5114691;28;20302;-72
2021/06/05 07:36:39;;;;;;;5.28;3.83;;;;;;;;;;5114921;28;20350;-72
2021/06/05 07:39:06;;;;;;;9.15;4.10;;;;;;;;;;5115797;28;20649;-72
2021/06/05 07:41:33;;;;;;;5.82;4.50;;;;;;;;;;5113675;28;20653;-72
2021/06/05 07:43:59;;;;;;;5.25;4.30;;;;;;;;;;5113180;28;20204;-70
2021/06/05 07:46:26;;;;;;;6.63;4.70;;;;;;;;;;5112490;28;20314;-70
2021/06/05 07:48:53;;;;;;;4.57;4.05;;;;;;;;;;5113572;28;20249;-72
2021/06/05 07:51:19;;;;;;;6.22;4.03;;;;;;;;;;5129304;27;20577;-71
2021/06/05 07:53:47;;;;;;;3.70;3.33;;;;;;;;;;5133843;27;20199;-69
2021/06/05 07:56:14;;;;;;;5.15;3.63;;;;;;;;;;5132806;27;20591;-71
2021/06/05 07:58:40;;;;;;;4.75;3.53;;;;;;;;;;5133832;27;20218;-69
2021/06/05 08:01:07;;;;;;;3.63;3.33;;;;;;;;;;5133271;27;20293;-70
2021/06/05 08:03:33;;;;;;;4.65;3.85;;;;;;;;;;5115019;27;20243;-71
2021/06/05 08:06:00;;;;;;;4.00;3.45;;;;;;;;;;5112035;28;20249;-77
2021/06/05 08:08:26;;;;;;;4.95;3.88;;;;;;;;;;5111700;28;20306;-71
2021/06/05 08:10:53;;;;;;;3.85;3.03;;;;;;;;;;5112646;28;20788;-71
2021/06/05 08:13:20;;;;;;;4.80;3.05;;;;;;;;;;5112412;28;20200;-72
2021/06/05 08:15:47;;;;;;;4.05;3.10;;;;;;;;;;5112057;28;20553;-70
2021/06/05 08:18:14;;;;;;;3.80;3.13;;;;;;;;;;5112398;28;20298;-72
2021/06/05 08:20:55;;;;;;;4.97;3.63;;;;;;;;;;5111217;28;20226;-71
2021/06/05 08:23:23;;;;;;;4.43;3.85;;;;;;;;;;5111096;28;20291;-71
2021/06/05 08:25:50;;;;;;;3.40;2.60;;;;;;;;;;5111721;28;20604;-71
2021/06/05 08:28:17;;;;;;;3.45;2.88;;;;;;;;;;5111067;28;20200;-70
2021/06/05 08:30:45;;;;;;;4.20;3.15;;;;;;;;;;5112099;28;20223;-71
2021/06/05 08:33:12;;;;;;;3.08;2.55;;;;;;;;;;5112143;28;20223;-68
2021/06/05 08:35:39;;;;;;;3.15;2.85;;;;;;;;;;5111520;28;20294;-69
2021/06/05 08:38:06;;;;;;;4.50;3.20;;;;;;;;;;5112587;28;20208;-70
2021/06/05 08:40:55;;;;;;;3.95;3.03;;;;;;;;;;5112225;28;20745;-68
2021/06/05 08:43:26;;;;;;;4.38;3.72;;;;;;;;;;5107600;28;20208;-69
2021/06/05 08:45:53;;;;;;;2.95;2.58;;;;;;;;;;5099016;28;20263;-69
2021/06/05 08:48:20;;;;;;;3.50;2.97;;;;;;;;;;5104928;28;20200;-68
2021/06/05 08:50:46;;;;;;;3.10;2.45;;;;;;;;;;5105078;27;20230;-67
2021/06/05 08:53:20;;;;;;;3.47;2.80;;;;;;;;;;5099051;28;20252;-67
2021/06/05 08:55:54;;;;;;;4.13;2.95;;;;;;;;;;5097859;28;20206;-68
2021/06/05 08:58:30;;;;;;;2.60;2.40;;;;;;;;;;5108117;28;20215;-67
2021/06/05 09:01:10;;;;;;;3.53;2.53;;;;;;;;;;5102986;28;20294;-69
2021/06/05 09:03:38;;;;;;;3.75;2.70;;;;;;;;;;5102500;28;20252;-68
2021/06/05 09:06:06;;;;;;;4.18;3.13;;;;;;;;;;5108825;28;20326;-69
2021/06/05 09:08:32;;;;;;;2.53;2.33;;;;;;;;;;5110348;28;20290;-69
2021/06/05 09:11:08;;;;;;;2.95;2.35;;;;;;;;;;5110301;28;20213;-69
2021/06/05 09:13:34;;;;;;;3.13;2.20;;;;;;;;;;5110185;28;20739;-68
2021/06/05 09:16:21;;;;;;;3.70;2.70;;;;;;;;;;5109307;28;20203;-71
2021/06/05 09:18:50;;;;;;;3.13;2.63;;;;;;;;;;5110365;28;20235;-70
2021/06/05 09:21:25;;;;;;;2.85;2.42;;;;;;;;;;5109375;28;20733;-70
2021/06/05 09:23:52;;;;;;;2.70;2.28;;;;;;;;;;5106422;28;20302;-71
2021/06/05 09:26:26;;;;;;;4.20;2.50;;;;;;;;;;5109227;28;20229;-70
2021/06/05 09:29:09;;;;;;;3.45;2.70;;;;;;;;;;5109762;28;20213;-70
2021/06/05 09:31:49;;;;;;;3.20;2.78;;;;;;;;;;5109819;28;20286;-69
2021/06/05 09:34:15;;;;;;;4.68;2.63;;;;;;;;;;5108744;28;20207;-68
2021/06/05 09:36:42;;;;;;;3.30;2.97;;;;;;;;;;5106504;28;20203;-70
2021/06/05 09:39:14;;;;;;;4.13;3.03;;;;;;;;;;5108764;28;20307;-68
2021/06/05 09:41:46;;;;;;;5.20;3.22;;;;;;;;;;5108107;28;20676;-73
2021/06/05 09:44:21;;;;;;;3.65;2.95;;;;;;;;;;5109531;28;20234;-73
2021/06/05 09:46:56;;;;;;;5.57;3.78;;;;;;;;;;5109454;28;20230;-71
2021/06/05 09:49:34;;;;;;;4.60;3.38;;;;;;;;;;5107864;28;20302;-71
2021/06/05 09:52:01;;;;;;;4.13;3.35;;;;;;;;;;5102997;28;20195;-71
2021/06/05 09:54:27;;;;;;;3.63;3.03;;;;;;;;;;5108199;28;20290;-71
2021/06/05 09:56:54;;;;;;;4.53;3.47;;;;;;;;;;5111652;28;20207;-71
2021/06/05 09:59:28;;;;;;;4.00;3.47;;;;;;;;;;5111993;28;20719;-72
2021/06/05 10:02:05;;;;;;;4.53;3.63;;;;;;;;;;5112710;28;20211;-71
2021/06/05 10:04:33;;;;;;;4.05;3.25;;;;;;;;;;5110811;28;20230;-72
2021/06/05 10:07:01;;;;;;;3.72;2.90;;;;;;;;;;5113172;28;20208;-72
2021/06/05 10:09:30;;;;;;;4.53;3.78;;;;;;;;;;5112960;27;20220;-72
2021/06/05 10:12:05;;;;;;;4.05;3.60;;;;;;;;;;5112739;28;20211;-72
2021/06/05 10:14:53;;;;;;;5.20;3.70;;;;;;;;;;5110866;28;20290;-72
2021/06/05 10:17:19;;;;;;;5.05;4.38;;;;;;;;;;5112739;27;20199;-73
2021/06/05 10:19:49;;;;;;;4.82;4.28;;;;;;;;;;5112266;28;20752;-72
2021/06/05 10:22:16;;;;;;;4.03;3.28;;;;;;;;;;5112556;28;20531;-72
2021/06/05 10:24:45;;;;;;;15.38;6.00;;;;;;;;;;5110760;28;20684;-71
2021/06/05 10:27:13;;;;;;;3.95;3.20;;;;;;;;;;5110616;28;20319;-71
2021/06/05 10:29:47;;;;;;;4.25;3.67;;;;;;;;;;5111907;28;20284;-72
2021/06/05 10:32:23;;;;;;;5.78;4.28;;;;;;;;;;5110833;28;20204;-72
2021/06/05 10:35:00;;;;;;;6.18;4.47;;;;;;;;;;5111683;28;20286;-72
2021/06/05 10:37:28;;;;;;;4.70;3.50;;;;;;;;;;5111590;28;20212;-72
2021/06/05 10:39:55;;;;;;;3.92;2.90;;;;;;;;;;5111650;28;20252;-72
2021/06/05 10:42:26;;;;;;;4.95;3.83;;;;;;;;;;5111836;28;20315;-71
2021/06/05 10:44:54;;;;;;;5.10;3.75;;;;;;;;;;5111141;28;20282;-71
2021/06/05 10:47:26;;;;;;;7.05;4.10;;;;;;;;;;5112246;28;20246;-73
2021/06/05 10:49:55;;;;;;;4.63;3.83;;;;;;;;;;5114508;27;20595;-71
2021/06/05 10:52:26;;;;;;;6.72;4.13;;;;;;;;;;5115911;27;20284;-71
2021/06/05 10:54:55;;;;;;;8.18;4.75;;;;;;;;;;5110342;28;20286;-73
2021/06/05 10:57:26;;;;;;;2.30;1.98;;;;;;;;;;5112226;28;20288;-73
2021/06/05 10:59:57;;;;;;;2.33;1.92;;;;;;;;;;5112143;28;20230;-73
2021/06/05 11:02:33;;;;;;;2.50;1.50;;;;;;;;;;5111951;28;20231;-69
2021/06/05 11:04:59;;;;;;;2.88;2.00;;;;;;;;;;5108796;28;20199;-69
2021/06/05 11:07:33;;;;;;;2.67;1.73;;;;;;;;;;5111681;28;20286;-69
2021/06/05 11:10:01;;;;;;;1.88;1.67;;;;;;;;;;5112288;28;20228;-69
2021/06/05 11:12:27;;;;;;;2.38;1.50;;;;;;;;;;5112263;28;20337;-69
2021/06/05 11:14:57;;;;;;;1.98;1.60;;;;;;;;;;5112037;28;20740;-70
2021/06/05 11:17:26;;;;;;;5.93;1.50;;;;;;;;;;5111086;28;20203;-70
2021/06/05 11:19:53;;;;;;;2.25;1.38;;;;;;;;;;5112987;28;20252;-70
2021/06/05 11:22:20;;;;;;;2.30;1.20;;;;;;;;;;5112736;28;20290;-72
2021/06/05 11:25:04;;;;;;;2.60;1.65;;;;;;;;;;5103011;28;20204;-72
2021/06/05 11:27:37;;;;;;;3.03;1.30;;;;;;;;;;5112342;28;20204;-67
2021/06/05 11:30:22;;;;;;;5.97;2.72;;;;;;;;;;5112291;28;20310;-70
2021/06/05 11:32:51;;;;;;;2.30;1.88;;;;;;;;;;5104064;28;20764;-67
2021/06/05 11:35:44;;;;;;;2.20;1.60;;;;;;;;;;5111458;28;20708;-67
2021/06/05 11:38:30;;;;;;;1.92;1.42;;;;;;;;;;5110679;28;20287;-68
2021/06/05 11:40:57;;;;;;;1.52;1.42;;;;;;;;;;5111993;28;20306;-67
2021/06/05 11:43:29;;;;;;;2.38;1.20;;;;;;;;;;5112078;27;20196;-68
2021/06/05 11:46:08;;;;;;;2.78;1.30;;;;;;;;;;5107342;28;20312;-69
2021/06/05 11:48:38;;;;;;;3.00;1.50;;;;;;;;;;5108047;28;20207;-69
2021/06/05 11:51:14;;;;;;;2.88;1.40;;;;;;;;;;5101225;28;20319;-67
2021/06/05 11:53:41;;;;;;;1.45;1.20;;;;;;;;;;5106487;28;20208;-68
2021/06/05 11:56:08;;;;;;;1.42;1.20;;;;;;;;;;5105305;28;20300;-69
2021/06/05 11:58:36;;;;;;;2.40;1.27;;;;;;;;;;5105314;28;20281;-71
2021/06/05 12:01:02;;;;;;;1.90;1.23;;;;;;;;;;5103037;28;20310;-69
2021/06/05 12:03:36;;;;;;;2.28;1.63;;;;;;;;;;5100547;28;20219;-69
2021/06/05 12:06:17;;;;;;;1.10;1.00;;;;;;;;;;5104471;28;20219;-68
2021/06/05 12:08:44;;;;;;;2.38;0.77;;;;;;;;;;5104957;28;20722;-71
2021/06/05 12:11:18;;;;;;;0.80;0.80;;;;;;;;;;5105881;28;20200;-68
2021/06/05 12:13:45;;;;;;;1.27;0.88;;;;;;;;;;5106165;28;20541;-72
2021/06/05 12:16:17;;;;;;;0.95;0.77;;;;;;;;;;5105742;28;20254;-72
2021/06/05 12:18:47;;;;;;;1.35;0.75;;;;;;;;;;5086393;28;20293;-71
2021/06/05 12:21:26;;;;;;;1.17;0.88;;;;;;;;;;5105110;28;20292;-71
2021/06/05 12:23:53;;;;;;;2.15;1.50;;;;;;;;;;5103451;28;20230;-69
2021/06/05 12:26:21;;;;;;;3.00;1.80;;;;;;;;;;5105240;28;20776;-69
2021/06/05 12:28:53;;;;;;;2.78;1.55;;;;;;;;;;5105906;28;20282;-69
2021/06/05 12:31:20;;;;;;;1.83;1.25;;;;;;;;;;5105735;28;20235;-69
2021/06/05 12:33:56;;;;;;;2.15;1.20;;;;;;;;;;5105016;28;20309;-69
2021/06/05 12:36:24;;;;;;;1.50;1.10;;;;;;;;;;5110143;28;20214;-72
2021/06/05 12:38:52;;;;;;;0.90;0.90;;;;;;;;;;5110968;28;20240;-71
2021/06/05 12:41:21;;;;;;;1.70;1.10;;;;;;;;;;5110776;28;20200;-72
2021/06/05 12:43:48;;;;;;;1.30;1.20;;;;;;;;;;5103360;28;20310;-71
2021/06/05 12:46:24;;;;;;;1.23;1.13;;;;;;;;;;5092719;28;20307;-69
2021/06/05 12:48:52;;;;;;;1.30;1.00;;;;;;;;;;5110935;28;20240;-70
2021/06/05 12:51:22;;;;;;;1.77;1.08;;;;;;;;;;5112945;27;20283;-71
2021/06/05 12:54:17;;;;;;;3.90;1.65;;;;;;;;;;5110769;28;20346;-72
2021/06/05 12:56:44;;;;;;;0.70;0.50;;;;;;;;;;5108990;28;20745;-71
2021/06/05 12:59:13;;;;;;;1.30;1.02;;;;;;;;;;5109557;28;20227;-70
2021/06/05 13:01:41;;;;;;;0.80;0.75;;;;;;;;;;5107129;28;20227;-71
2021/06/05 13:04:25;;;;;;;1.58;0.90;;;;;;;;;;5109725;28;20207;-71
2021/06/05 13:06:54;;;;;;;2.15;0.95;;;;;;;;;;5110148;28;20247;-72
2021/06/05 13:09:38;;;;;;;1.67;1.10;;;;;;;;;;5108662;28;20211;-71
2021/06/05 13:12:05;;;;;;;1.48;1.02;;;;;;;;;;5108574;28;20202;-71
2021/06/05 13:14:33;;;;;;;1.50;1.05;;;;;;;;;;5110452;28;20218;-71
2021/06/05 13:17:08;;;;;;;1.20;1.02;;;;;;;;;;5110276;27;20668;-72
2021/06/05 13:19:35;;;;;;;1.30;1.10;;;;;;;;;;5108867;28;20262;-70
2021/06/05 13:22:07;;;;;;;2.40;1.60;;;;;;;;;;5108136;28;20262;-71
2021/06/05 13:24:33;;;;;;;2.75;1.20;;;;;;;;;;5107519;28;20287;-70
2021/06/05 13:27:20;;;;;;;2.20;1.67;;;;;;;;;;5107636;28;20274;-71
2021/06/05 13:29:48;;;;;;;1.15;0.98;;;;;;;;;;5106729;28;20962;-71
2021/06/05 13:32:24;;;;;;;2.10;1.67;;;;;;;;;;5131458;27;20251;-71
2021/06/05 13:34:51;;;;;;;4.85;1.75;;;;;;;;;;5130949;27;20724;-71
2021/06/05 13:37:17;;;;;;;1.90;1.48;;;;;;;;;;5149667;27;20202;-69
2021/06/05 13:40:01;;;;;;;1.40;1.20;;;;;;;;;;5131314;27;20222;-69
2021/06/05 13:42:29;;;;;;;2.05;1.20;;;;;;;;;;5124420;27;20198;-69
2021/06/05 13:44:56;;;;;;;1.55;1.33;;;;;;;;;;5133841;27;20231;-69
2021/06/05 13:47:22;;;;;;;1.58;1.20;;;;;;;;;;5125578;27;20316;-69
2021/06/05 13:49:49;;;;;;;0.90;0.90;;;;;;;;;;5145042;27;20223;-68
2021/06/05 13:52:30;;;;;;;3.90;1.42;;;;;;;;;;5132342;27;20290;-70
2021/06/05 13:55:03;;;;;;;1.25;1.10;;;;;;;;;;5131495;27;20202;-69
2021/06/05 13:57:30;;;;;;;1.13;0.93;;;;;;;;;;5149526;27;20285;-68
2021/06/05 13:59:57;;;;;;;2.83;1.75;;;;;;;;;;5131286;27;20272;-74
2021/06/05 14:02:23;;;;;;;3.97;1.08;;;;;;;;;;5149308;27;20238;-69
2021/06/05 14:04:50;;;;;;;1.20;0.80;;;;;;;;;;5126408;27;20215;-70
2021/06/05 14:07:17;;;;;;;1.70;1.08;;;;;;;;;;5103470;28;20226;-69
2021/06/05 14:09:45;;;;;;;2.60;1.52;;;;;;;;;;5105413;28;20259;-68
2021/06/05 14:12:13;;;;;;;1.65;1.25;;;;;;;;;;5104736;28;20806;-73
2021/06/05 14:14:40;;;;;;;1.73;1.25;;;;;;;;;;5122183;27;20828;-69
2021/06/05 14:17:08;;;;;;;2.28;1.77;;;;;;;;;;5108942;27;20710;-69
2021/06/05 14:19:34;;;;;;;2.45;1.50;;;;;;;;;;5127947;27;20321;-70
2021/06/05 14:22:01;;;;;;;1.00;0.93;;;;;;;;;;5142845;27;20265;-72
2021/06/05 14:24:27;;;;;;;1.00;0.82;;;;;;;;;;5132780;27;20283;-70
2021/06/05 14:26:54;;;;;;;1.55;1.02;;;;;;;;;;5128555;27;20302;-74
2021/06/05 14:29:20;;;;;;;4.80;1.67;;;;;;;;;;5089288;28;20307;-69
2021/06/05 14:31:47;;;;;;;3.83;1.98;;;;;;;;;;5124395;27;20260;-71
2021/06/05 14:34:13;;;;;;;1.75;1.35;;;;;;;;;;5124313;28;20238;-67
2021/06/05 14:36:40;;;;;;;1.60;1.40;;;;;;;;;;5145038;27;20285;-70
2021/06/05 14:39:06;;;;;;;1.30;1.10;;;;;;;;;;5151921;27;20314;-70
2021/06/05 14:41:33;;;;;;;1.63;1.17;;;;;;;;;;5116358;27;20620;-68
2021/06/05 14:43:59;;;;;;;2.78;1.50;;;;;;;;;;5130238;27;20694;-72
2021/06/05 14:46:26;;;;;;;2.35;1.48;;;;;;;;;;5109578;27;20306;-72
2021/06/05 14:48:52;;;;;;;2.17;1.65;;;;;;;;;;5127599;27;20263;-72
2021/06/05 14:51:19;;;;;;;1.67;1.30;;;;;;;;;;5137435;27;20214;-70
2021/06/05 14:53:45;;;;;;;1.45;1.10;;;;;;;;;;5147934;27;20728;-70
2021/06/05 14:56:13;;;;;;;1.25;1.15;;;;;;;;;;5146411;27;20254;-73
2021/06/05 14:58:41;;;;;;;1.13;0.93;;;;;;;;;;5149256;27;20309;-74
2021/06/05 15:01:08;;;;;;;4.78;1.35;;;;;;;;;;5139887;27;20769;-69
2021/06/05 15:03:34;;;;;;;1.35;1.25;;;;;;;;;;5117544;27;20196;-67
2021/06/05 15:06:01;;;;;;;1.33;1.10;;;;;;;;;;5124977;27;20264;-68
2021/06/05 15:08:28;;;;;;;1.73;1.17;;;;;;;;;;5126182;27;20692;-68
2021/06/05 15:10:54;;;;;;;1.55;1.42;;;;;;;;;;5131684;27;20241;-68
2021/06/05 15:13:25;;;;;;;2.40;1.73;;;;;;;;;;5130879;27;20195;-68
2021/06/05 15:15:51;;;;;;;2.35;1.55;;;;;;;;;;5120691;27;20234;-68
2021/06/05 15:18:18;;;;;;;3.28;1.42;;;;;;;;;;5107898;27;20219;-68
2021/06/05 15:20:44;;;;;;;2.38;1.23;;;;;;;;;;5135768;27;20222;-68
2021/06/05 15:23:12;;;;;;;1.60;1.10;;;;;;;;;;5139330;27;20230;-67
2021/06/05 15:25:40;;;;;;;2.35;1.58;;;;;;;;;;5124800;27;20374;-68
2021/06/05 15:28:07;;;;;;;2.47;1.55;;;;;;;;;;5124891;27;20706;-68